sensor_id;sensor_type;location;lat;lon;timestamp;temperature;humidity
76104;HTU21D;64831;44.870;37.336;2023-02-01T00:02:00;0.81;77.08
76104;HTU21D;64831;44.870;37.336;2023-02-01T00:04:26;0.87;77.34
76104;HTU21D;64831;44.870;37.336;2023-02-01T00:06:52;0.92;77.46
76104;HTU21D;64831;44.870;37.336;2023-02-01T00:09:18;0.99;77.31
76104;HTU21D;64831;44.870;37.336;2023-02-01T00:11:44;1.03;77.01
76104;HTU21D;64831;44.870;37.336;2023-02-01T00:14:11;1.06;76.98
76104;HTU21D;64831;44.870;37.336;2023-02-01T00:16:37;1.04;76.87
76104;HTU21D;64831;44.870;37.336;2023-02-01T00:19:06;1.05;77.07
76104;HTU21D;64831;44.870;37.336;2023-02-01T00:21:33;1.07;77.01
76104;HTU21D;64831;44.870;37.336;2023-02-01T00:23:59;1.08;76.82
76104;HTU21D;64831;44.870;37.336;2023-02-01T00:26:36;1.16;77.00
76104;HTU21D;64831;44.870;37.336;2023-02-01T00:29:05;1.17;77.47
76104;HTU21D;64831;44.870;37.336;2023-02-01T00:31:31;1.22;76.84
76104;HTU21D;64831;44.870;37.336;2023-02-01T00:33:57;1.27;76.90
76104;HTU21D;64831;44.870;37.336;2023-02-01T00:36:23;1.35;76.47
76104;HTU21D;64831;44.870;37.336;2023-02-01T00:38:49;1.41;76.15
76104;HTU21D;64831;44.870;37.336;2023-02-01T00:41:19;1.48;76.49
76104;HTU21D;64831;44.870;37.336;2023-02-01T00:43:46;1.54;76.60
76104;HTU21D;64831;44.870;37.336;2023-02-01T00:46:14;1.61;76.50
76104;HTU21D;64831;44.870;37.336;2023-02-01T00:48:40;1.69;76.21
76104;HTU21D;64831;44.870;37.336;2023-02-01T00:51:09;1.79;76.04
76104;HTU21D;64831;44.870;37.336;2023-02-01T00:53:35;1.88;76.02
76104;HTU21D;64831;44.870;37.336;2023-02-01T00:56:02;2.01;76.45
76104;HTU21D;64831;44.870;37.336;2023-02-01T00:58:28;2.11;75.92
76104;HTU21D;64831;44.870;37.336;2023-02-01T01:03:27;2.20;75.54
76104;HTU21D;64831;44.870;37.336;2023-02-01T01:05:57;2.24;75.22
76104;HTU21D;64831;44.870;37.336;2023-02-01T01:08:23;2.25;75.13
76104;HTU21D;64831;44.870;37.336;2023-02-01T01:10:49;2.25;74.94
76104;HTU21D;64831;44.870;37.336;2023-02-01T01:13:15;2.20;74.87
76104;HTU21D;64831;44.870;37.336;2023-02-01T01:15:41;2.15;74.67
76104;HTU21D;64831;44.870;37.336;2023-02-01T01:18:08;2.11;74.52
76104;HTU21D;64831;44.870;37.336;2023-02-01T01:20:36;2.08;74.57
76104;HTU21D;64831;44.870;37.336;2023-02-01T01:23:02;2.07;74.61
76104;HTU21D;64831;44.870;37.336;2023-02-01T01:25:28;2.03;74.61
76104;HTU21D;64831;44.870;37.336;2023-02-01T01:27:54;2.02;74.81
76104;HTU21D;64831;44.870;37.336;2023-02-01T01:30:20;2.01;74.97
76104;HTU21D;64831;44.870;37.336;2023-02-01T01:32:46;2.02;74.82
76104;HTU21D;64831;44.870;37.336;2023-02-01T01:35:12;2.07;74.99
76104;HTU21D;64831;44.870;37.336;2023-02-01T01:37:38;2.10;74.81
76104;HTU21D;64831;44.870;37.336;2023-02-01T01:40:05;2.15;74.73
76104;HTU21D;64831;44.870;37.336;2023-02-01T01:42:42;2.21;74.48
76104;HTU21D;64831;44.870;37.336;2023-02-01T01:45:24;2.24;74.64
76104;HTU21D;64831;44.870;37.336;2023-02-01T01:50:50;2.32;74.28
76104;HTU21D;64831;44.870;37.336;2023-02-01T01:53:32;2.36;74.17
76104;HTU21D;64831;44.870;37.336;2023-02-01T01:55:59;2.39;74.22
76104;HTU21D;64831;44.870;37.336;2023-02-01T01:58:28;2.42;74.24
76104;HTU21D;64831;44.870;37.336;2023-02-01T02:00:55;2.43;74.08
76104;HTU21D;64831;44.870;37.336;2023-02-01T02:03:30;2.41;73.93
76104;HTU21D;64831;44.870;37.336;2023-02-01T02:05:59;2.41;73.86
76104;HTU21D;64831;44.870;37.336;2023-02-01T02:08:26;2.41;73.87
76104;HTU21D;64831;44.870;37.336;2023-02-01T02:10:53;2.41;73.86
76104;HTU21D;64831;44.870;37.336;2023-02-01T02:13:46;2.39;73.86
76104;HTU21D;64831;44.870;37.336;2023-02-01T02:37:28;2.67;73.57
76104;HTU21D;64831;44.870;37.336;2023-02-01T02:40:01;2.78;73.58
76104;HTU21D;64831;44.870;37.336;2023-02-01T02:45:55;3.06;73.14
76104;HTU21D;64831;44.870;37.336;2023-02-01T02:48:50;3.17;72.93
76104;HTU21D;64831;44.870;37.336;2023-02-01T02:51:22;3.24;72.46
76104;HTU21D;64831;44.870;37.336;2023-02-01T02:54:14;3.25;72.32
76104;HTU21D;64831;44.870;37.336;2023-02-01T02:57:02;3.25;72.11
76104;HTU21D;64831;44.870;37.336;2023-02-01T02:59:48;3.17;71.91
76104;HTU21D;64831;44.870;37.336;2023-02-01T03:02:33;3.14;71.92
76104;HTU21D;64831;44.870;37.336;2023-02-01T03:05:18;3.08;72.03
76104;HTU21D;64831;44.870;37.336;2023-02-01T03:08:15;3.03;72.03
76104;HTU21D;64831;44.870;37.336;2023-02-01T03:13:31;2.90;72.03
76104;HTU21D;64831;44.870;37.336;2023-02-01T03:16:25;2.83;72.15
76104;HTU21D;64831;44.870;37.336;2023-02-01T03:21:56;2.72;72.60
76104;HTU21D;64831;44.870;37.336;2023-02-01T03:24:29;2.67;72.80
76104;HTU21D;64831;44.870;37.336;2023-02-01T03:29:49;2.67;72.96
76104;HTU21D;64831;44.870;37.336;2023-02-01T03:32:17;2.66;73.17
76104;HTU21D;64831;44.870;37.336;2023-02-01T03:34:43;2.70;73.15
76104;HTU21D;64831;44.870;37.336;2023-02-01T03:37:12;2.74;73.29
76104;HTU21D;64831;44.870;37.336;2023-02-01T03:39:56;2.78;73.03
76104;HTU21D;64831;44.870;37.336;2023-02-01T03:42:37;2.79;72.86
76104;HTU21D;64831;44.870;37.336;2023-02-01T03:45:08;2.80;73.03
76104;HTU21D;64831;44.870;37.336;2023-02-01T03:47:39;2.79;73.22
76104;HTU21D;64831;44.870;37.336;2023-02-01T03:50:23;2.80;72.87
76104;HTU21D;64831;44.870;37.336;2023-02-01T03:52:59;2.76;73.00
76104;HTU21D;64831;44.870;37.336;2023-02-01T03:55:28;2.73;73.27
76104;HTU21D;64831;44.870;37.336;2023-02-01T03:58:07;2.74;73.25
76104;HTU21D;64831;44.870;37.336;2023-02-01T04:00:35;2.71;73.27
76104;HTU21D;64831;44.870;37.336;2023-02-01T04:03:03;2.66;73.54
76104;HTU21D;64831;44.870;37.336;2023-02-01T04:05:29;2.64;73.63
76104;HTU21D;64831;44.870;37.336;2023-02-01T04:08:02;2.65;73.74
76104;HTU21D;64831;44.870;37.336;2023-02-01T04:10:28;2.67;73.95
76104;HTU21D;64831;44.870;37.336;2023-02-01T04:12:54;2.70;73.98
76104;HTU21D;64831;44.870;37.336;2023-02-01T04:15:20;2.75;74.09
76104;HTU21D;64831;44.870;37.336;2023-02-01T04:17:45;2.79;73.95
76104;HTU21D;64831;44.870;37.336;2023-02-01T04:20:11;2.80;73.76
76104;HTU21D;64831;44.870;37.336;2023-02-01T04:22:37;2.82;73.73
76104;HTU21D;64831;44.870;37.336;2023-02-01T04:25:03;2.83;73.83
76104;HTU21D;64831;44.870;37.336;2023-02-01T04:27:31;2.81;73.83
76104;HTU21D;64831;44.870;37.336;2023-02-01T04:29:57;2.81;73.61
76104;HTU21D;64831;44.870;37.336;2023-02-01T04:32:23;2.76;73.68
76104;HTU21D;64831;44.870;37.336;2023-02-01T04:34:49;2.75;73.59
76104;HTU21D;64831;44.870;37.336;2023-02-01T04:37:15;2.72;73.72
76104;HTU21D;64831;44.870;37.336;2023-02-01T04:39:41;2.68;73.57
76104;HTU21D;64831;44.870;37.336;2023-02-01T04:42:06;2.62;73.68
76104;HTU21D;64831;44.870;37.336;2023-02-01T04:44:34;2.59;73.73
76104;HTU21D;64831;44.870;37.336;2023-02-01T04:47:02;2.52;73.75
76104;HTU21D;64831;44.870;37.336;2023-02-01T04:49:28;2.52;73.98
76104;HTU21D;64831;44.870;37.336;2023-02-01T04:51:54;2.50;74.09
76104;HTU21D;64831;44.870;37.336;2023-02-01T04:54:20;2.49;74.22
76104;HTU21D;64831;44.870;37.336;2023-02-01T04:56:45;2.47;74.15
76104;HTU21D;64831;44.870;37.336;2023-02-01T04:59:12;2.47;73.94
76104;HTU21D;64831;44.870;37.336;2023-02-01T05:01:38;2.46;74.03
76104;HTU21D;64831;44.870;37.336;2023-02-01T05:04:04;2.47;74.19
76104;HTU21D;64831;44.870;37.336;2023-02-01T05:06:30;2.49;74.08
76104;HTU21D;64831;44.870;37.336;2023-02-01T05:08:56;2.54;74.02
76104;HTU21D;64831;44.870;37.336;2023-02-01T05:11:22;2.58;74.06
76104;HTU21D;64831;44.870;37.336;2023-02-01T05:14:06;2.60;74.15
76104;HTU21D;64831;44.870;37.336;2023-02-01T05:16:32;2.64;74.27
76104;HTU21D;64831;44.870;37.336;2023-02-01T05:18:58;2.68;74.37
76104;HTU21D;64831;44.870;37.336;2023-02-01T05:21:24;2.75;74.41
76104;HTU21D;64831;44.870;37.336;2023-02-01T05:23:50;2.83;74.48
76104;HTU21D;64831;44.870;37.336;2023-02-01T05:26:35;2.99;75.31
76104;HTU21D;64831;44.870;37.336;2023-02-01T05:29:01;3.42;75.90
76104;HTU21D;64831;44.870;37.336;2023-02-01T05:31:27;4.04;76.41
76104;HTU21D;64831;44.870;37.336;2023-02-01T05:33:53;4.81;75.86
76104;HTU21D;64831;44.870;37.336;2023-02-01T05:36:19;5.60;74.26
76104;HTU21D;64831;44.870;37.336;2023-02-01T05:38:45;6.21;72.72
76104;HTU21D;64831;44.870;37.336;2023-02-01T05:41:11;6.78;72.16
76104;HTU21D;64831;44.870;37.336;2023-02-01T05:43:36;7.39;70.24
76104;HTU21D;64831;44.870;37.336;2023-02-01T05:46:02;7.77;68.87
76104;HTU21D;64831;44.870;37.336;2023-02-01T05:48:28;8.08;67.01
76104;HTU21D;64831;44.870;37.336;2023-02-01T05:50:54;8.44;66.55
76104;HTU21D;64831;44.870;37.336;2023-02-01T05:53:20;9.01;66.66
76104;HTU21D;64831;44.870;37.336;2023-02-01T05:55:46;9.45;65.13
76104;HTU21D;64831;44.870;37.336;2023-02-01T05:58:12;9.72;63.08
76104;HTU21D;64831;44.870;37.336;2023-02-01T06:00:39;9.97;62.55
76104;HTU21D;64831;44.870;37.336;2023-02-01T06:03:05;10.28;61.54
76104;HTU21D;64831;44.870;37.336;2023-02-01T06:05:31;10.74;60.93
76104;HTU21D;64831;44.870;37.336;2023-02-01T06:07:56;11.04;58.80
76104;HTU21D;64831;44.870;37.336;2023-02-01T06:10:22;11.02;59.20
76104;HTU21D;64831;44.870;37.336;2023-02-01T06:12:48;11.09;59.37
76104;HTU21D;64831;44.870;37.336;2023-02-01T06:15:14;11.13;58.40
76104;HTU21D;64831;44.870;37.336;2023-02-01T06:17:45;11.04;58.11
76104;HTU21D;64831;44.870;37.336;2023-02-01T06:20:13;11.00;58.03
76104;HTU21D;64831;44.870;37.336;2023-02-01T06:22:39;10.94;58.64
76104;HTU21D;64831;44.870;37.336;2023-02-01T06:25:07;11.09;58.20
76104;HTU21D;64831;44.870;37.336;2023-02-01T06:27:33;11.22;58.96
76104;HTU21D;64831;44.870;37.336;2023-02-01T06:29:59;11.49;58.04
76104;HTU21D;64831;44.870;37.336;2023-02-01T06:32:25;11.68;57.70
76104;HTU21D;64831;44.870;37.336;2023-02-01T06:34:51;11.98;57.84
76104;HTU21D;64831;44.870;37.336;2023-02-01T06:37:19;12.29;58.13
76104;HTU21D;64831;44.870;37.336;2023-02-01T06:39:44;12.58;57.56
76104;HTU21D;64831;44.870;37.336;2023-02-01T06:42:10;12.86;57.26
76104;HTU21D;64831;44.870;37.336;2023-02-01T06:44:36;13.05;56.27
76104;HTU21D;64831;44.870;37.336;2023-02-01T06:47:05;13.21;55.67
76104;HTU21D;64831;44.870;37.336;2023-02-01T06:49:31;13.32;54.62
76104;HTU21D;64831;44.870;37.336;2023-02-01T06:51:57;13.48;54.69
76104;HTU21D;64831;44.870;37.336;2023-02-01T06:54:26;13.71;54.44
76104;HTU21D;64831;44.870;37.336;2023-02-01T06:56:52;14.00;53.36
76104;HTU21D;64831;44.870;37.336;2023-02-01T06:59:18;14.09;52.48
76104;HTU21D;64831;44.870;37.336;2023-02-01T07:01:44;14.10;52.30
